Aviation Digital Data Service (ADDS)

Output produced by METARs form (1142 UTC 19 February 2019)
found at http://www.aviationweather.gov/metar/data/
 
METAR text: ETHS 191120Z 27017G27KT 9999 BKN025 BKN042 09/02 Q1015 BLU BLU TEMPO WHT
Conditions at: ETHS (FASSBERG (GER-AF, DE) observed 1120 UTC 19 February 2019
Temperature: 9.0°C (48°F)
Dewpoint: 2.0°C (36°F) [RH = 61%]
Pressure (altimeter): 29.97 inches Hg (1015.0 mb)
Winds: from the W (270 degrees) at 20 MPH (17 knots; 8.7 m/s)
gusting to 31 MPH (27 knots; 13.9 m/s)
Visibility: 6 or more miles (10+ km)
Ceiling: 2500 feet AGL
Clouds: broken clouds at 2500 feet AGL
broken clouds at 4200 feet AGL
Weather: no significant weather observed at this time

METAR text: ETHS 191101Z 27014KT 9999 BKN022 09/02 Q1015 WHT BLU TEMPO GRN
Conditions at: ETHS (FASSBERG (GER-AF, DE) observed 1101 UTC 19 February 2019
Temperature: 9.0°C (48°F)
Dewpoint: 2.0°C (36°F) [RH = 61%]
Pressure (altimeter): 29.97 inches Hg (1015.0 mb)
Winds: from the W (270 degrees) at 16 MPH (14 knots; 7.2 m/s)
Visibility: 6 or more miles (10+ km)
Ceiling: 2200 feet AGL
Clouds: broken clouds at 2200 feet AGL
Weather: no significant weather observed at this time

METAR text: ETHS 191020Z 27012KT 9999 SCT016 08/04 Q1015 BLU+BLU+ TEMPO WHT
Conditions at: ETHS (FASSBERG (GER-AF, DE) observed 1020 UTC 19 February 2019
Temperature: 8.0°C (46°F)
Dewpoint: 4.0°C (39°F) [RH = 76%]
Pressure (altimeter): 29.97 inches Hg (1015.0 mb)
Winds: from the W (270 degrees) at 14 MPH (12 knots; 6.2 m/s)
Visibility: 6 or more miles (10+ km)
Ceiling: at least 12,000 feet AGL
Clouds: scattered clouds at 1600 feet AGL
Weather: no significant weather observed at this time

METAR text: ETHS 190938Z 26011KT 8000 SCT015 SCT025 07/04 Q1015 BLU+BLU+ TEMPO WHT
Conditions at: ETHS (FASSBERG (GER-AF, DE) observed 0938 UTC 19 February 2019
Temperature: 7.0°C (45°F)
Dewpoint: 4.0°C (39°F) [RH = 81%]
Pressure (altimeter): 29.97 inches Hg (1015.0 mb)
Winds: from the W (260 degrees) at 13 MPH (11 knots; 5.7 m/s)
Visibility: 5 miles ( 8 km)
Ceiling: at least 12,000 feet AGL
Clouds: scattered clouds at 1500 feet AGL
scattered clouds at 2500 feet AGL
Weather: no significant weather observed at this time

METAR text: ETHS 190920Z 26011KT 8000 SCT012 BKN022 07/04 Q1015 WHT BLU TEMPO GRN
Conditions at: ETHS (FASSBERG (GER-AF, DE) observed 0920 UTC 19 February 2019
Temperature: 7.0°C (45°F)
Dewpoint: 4.0°C (39°F) [RH = 81%]
Pressure (altimeter): 29.97 inches Hg (1015.0 mb)
Winds: from the W (260 degrees) at 13 MPH (11 knots; 5.7 m/s)
Visibility: 5 miles ( 8 km)
Ceiling: 2200 feet AGL
Clouds: scattered clouds at 1200 feet AGL
broken clouds at 2200 feet AGL
Weather: no significant weather observed at this time

METAR text: ETHS 190820Z 27010KT 6000 SCT012 BKN020 06/04 Q1014 WHT BLU TEMPO GRN
Conditions at: ETHS (FASSBERG (GER-AF, DE) observed 0820 UTC 19 February 2019
Temperature: 6.0°C (43°F)
Dewpoint: 4.0°C (39°F) [RH = 87%]
Pressure (altimeter): 29.94 inches Hg (1014.0 mb)
Winds: from the W (270 degrees) at 12 MPH (10 knots; 5.1 m/s)
Visibility: 4 miles ( 6 km)
Ceiling: 2000 feet AGL
Clouds: scattered clouds at 1200 feet AGL
broken clouds at 2000 feet AGL
Weather: no significant weather observed at this time

METAR text: ETHS 190735Z 26009KT 6000 BKN011 06/04 Q1014 GRN BLU TEMPO GRN
Conditions at: ETHS (FASSBERG (GER-AF, DE) observed 0735 UTC 19 February 2019
Temperature: 6.0°C (43°F)
Dewpoint: 4.0°C (39°F) [RH = 87%]
Pressure (altimeter): 29.94 inches Hg (1014.0 mb)
Winds: from the W (260 degrees) at 10 MPH (9 knots; 4.6 m/s)
Visibility: 4 miles ( 6 km)
Ceiling: 1100 feet AGL
Clouds: broken clouds at 1100 feet AGL
Weather: no significant weather observed at this time

METAR text: ETHS 190720Z 26008KT 6000 FEW013 BKN025 06/04 Q1014 WHT BLU TEMPO GRN
Conditions at: ETHS (FASSBERG (GER-AF, DE) observed 0720 UTC 19 February 2019
Temperature: 6.0°C (43°F)
Dewpoint: 4.0°C (39°F) [RH = 87%]
Pressure (altimeter): 29.94 inches Hg (1014.0 mb)
Winds: from the W (260 degrees) at 9 MPH (8 knots; 4.1 m/s)
Visibility: 4 miles ( 6 km)
Ceiling: 2500 feet AGL
Clouds: few clouds at 1300 feet AGL
broken clouds at 2500 feet AGL
Weather: no significant weather observed at this time

METAR text: ETHS 190645Z 25006KT 6000 SCT010 BKN100 06/03 Q1014 WHT BLU TEMPO GRN
Conditions at: ETHS (FASSBERG (GER-AF, DE) observed 0645 UTC 19 February 2019
Temperature: 6.0°C (43°F)
Dewpoint: 3.0°C (37°F) [RH = 81%]
Pressure (altimeter): 29.94 inches Hg (1014.0 mb)
Winds: from the WSW (250 degrees) at 7 MPH (6 knots; 3.1 m/s)
Visibility: 4 miles ( 6 km)
Ceiling: 10000 feet AGL
Clouds: scattered clouds at 1000 feet AGL
broken clouds at 10000 feet AGL
Weather: no significant weather observed at this time

METAR text: ETHS 190620Z 27006KT 6000 SCT012 BKN022 06/03 Q1013 WHT BLU TEMPO GRN
Conditions at: ETHS (FASSBERG (GER-AF, DE) observed 0620 UTC 19 February 2019
Temperature: 6.0°C (43°F)
Dewpoint: 3.0°C (37°F) [RH = 81%]
Pressure (altimeter): 29.91 inches Hg (1013.0 mb)
Winds: from the W (270 degrees) at 7 MPH (6 knots; 3.1 m/s)
Visibility: 4 miles ( 6 km)
Ceiling: 2200 feet AGL
Clouds: scattered clouds at 1200 feet AGL
broken clouds at 2200 feet AGL
Weather: no significant weather observed at this time

METAR text: ETHS 190520Z 26007KT 9999 BKN011 BKN160 07/02 Q1013 GRN BLU TEMPO GRN
Conditions at: ETHS (FASSBERG (GER-AF, DE) observed 0520 UTC 19 February 2019
Temperature: 7.0°C (45°F)
Dewpoint: 2.0°C (36°F) [RH = 70%]
Pressure (altimeter): 29.91 inches Hg (1013.0 mb)
Winds: from the W (260 degrees) at 8 MPH (7 knots; 3.6 m/s)
Visibility: 6 or more miles (10+ km)
Ceiling: 1100 feet AGL
Clouds: broken clouds at 1100 feet AGL
broken clouds at 16000 feet AGL
Weather: no significant weather observed at this time

METAR text: ETHS 190420Z 26010KT 9999 BKN160 BKN220 07/01 Q1013 BLU
Conditions at: ETHS (FASSBERG (GER-AF, DE) observed 0420 UTC 19 February 2019
Temperature: 7.0°C (45°F)
Dewpoint: 1.0°C (34°F) [RH = 66%]
Pressure (altimeter): 29.91 inches Hg (1013.0 mb)
Winds: from the W (260 degrees) at 12 MPH (10 knots; 5.1 m/s)
Visibility: 6 or more miles (10+ km)
Ceiling: 16000 feet AGL
Clouds: broken clouds at 16000 feet AGL
broken clouds at 22000 feet AGL
Weather: no significant weather observed at this time

METAR text: ETHS 190320Z 24006KT 9999 BKN160 05/M00 Q1012 BLU
Conditions at: ETHS (FASSBERG (GER-AF, DE) observed 0320 UTC 19 February 2019
Temperature: 5.0°C (41°F)
Dewpoint: 0.0°C (32°F) [RH = 70%]
Pressure (altimeter): 29.88 inches Hg (1012.0 mb)
Winds: from the WSW (240 degrees) at 7 MPH (6 knots; 3.1 m/s)
Visibility: 6 or more miles (10+ km)
Ceiling: 16000 feet AGL
Clouds: broken clouds at 16000 feet AGL
Weather: no significant weather observed at this time

METAR text: ETHS 190220Z 24006KT 9999 BKN200 04/M01 Q1013 BLU+
Conditions at: ETHS (FASSBERG (GER-AF, DE) observed 0220 UTC 19 February 2019
Temperature: 4.0°C (39°F)
Dewpoint: -1.0°C (30°F) [RH = 70%]
Pressure (altimeter): 29.91 inches Hg (1013.0 mb)
Winds: from the WSW (240 degrees) at 7 MPH (6 knots; 3.1 m/s)
Visibility: 6 or more miles (10+ km)
Ceiling: 20000 feet AGL
Clouds: broken clouds at 20000 feet AGL
Weather: no significant weather observed at this time

METAR text: ETHS 190120Z 24005KT 9999 BKN190 04/M01 Q1013 BLU
Conditions at: ETHS (FASSBERG (GER-AF, DE) observed 0120 UTC 19 February 2019
Temperature: 4.0°C (39°F)
Dewpoint: -1.0°C (30°F) [RH = 70%]
Pressure (altimeter): 29.91 inches Hg (1013.0 mb)
Winds: from the WSW (240 degrees) at 6 MPH (5 knots; 2.6 m/s)
Visibility: 6 or more miles (10+ km)
Ceiling: 19000 feet AGL
Clouds: broken clouds at 19000 feet AGL
Weather: no significant weather observed at this time

METAR text: ETHS 190020Z 24005KT 9999 BKN200 05/M01 Q1013 BLU+
Conditions at: ETHS (FASSBERG (GER-AF, DE) observed 0020 UTC 19 February 2019
Temperature: 5.0°C (41°F)
Dewpoint: -1.0°C (30°F) [RH = 65%]
Pressure (altimeter): 29.91 inches Hg (1013.0 mb)
Winds: from the WSW (240 degrees) at 6 MPH (5 knots; 2.6 m/s)
Visibility: 6 or more miles (10+ km)
Ceiling: 20000 feet AGL
Clouds: broken clouds at 20000 feet AGL
Weather: no significant weather observed at this time

METAR text: ETHS 182320Z 25004KT 9999 BKN200 04/M00 Q1013 BLU+
Conditions at: ETHS (FASSBERG (GER-AF, DE) observed 2320 UTC 18 February 2019
Temperature: 4.0°C (39°F)
Dewpoint: 0.0°C (32°F) [RH = 75%]
Pressure (altimeter): 29.91 inches Hg (1013.0 mb)
Winds: from the WSW (250 degrees) at 5 MPH (4 knots; 2.1 m/s)
Visibility: 6 or more miles (10+ km)
Ceiling: 20000 feet AGL
Clouds: broken clouds at 20000 feet AGL
Weather: no significant weather observed at this time

METAR text: ETHS 182220Z 00000KT 9999 SCT220 01/M01 Q1014 BLU+
Conditions at: ETHS (FASSBERG (GER-AF, DE) observed 2220 UTC 18 February 2019
Temperature: 1.0°C (34°F)
Dewpoint: -1.0°C (30°F) [RH = 86%]
Pressure (altimeter): 29.94 inches Hg (1014.0 mb)
Winds: calm
Visibility: 6 or more miles (10+ km)
Ceiling: at least 12,000 feet AGL
Clouds: scattered clouds at 22000 feet AGL
Weather: no significant weather observed at this time

METAR text: ETHS 182120Z VRB01KT 9999 SCT220 02/M01 Q1014 BLU+
Conditions at: ETHS (FASSBERG (GER-AF, DE) observed 2120 UTC 18 February 2019
Temperature: 2.0°C (36°F)
Dewpoint: -1.0°C (30°F) [RH = 80%]
Pressure (altimeter): 29.94 inches Hg (1014.0 mb)
Winds: variable direction winds at 1 MPH (1 knots; 0.5 m/s)
Visibility: 6 or more miles (10+ km)
Ceiling: at least 12,000 feet AGL
Clouds: scattered clouds at 22000 feet AGL
Weather: no significant weather observed at this time

METAR text: ETHS 182020Z 19002KT 9999 SCT220 02/M00 Q1014 BLU+
Conditions at: ETHS (FASSBERG (GER-AF, DE) observed 2020 UTC 18 February 2019
Temperature: 2.0°C (36°F)
Dewpoint: 0.0°C (32°F) [RH = 87%]
Pressure (altimeter): 29.94 inches Hg (1014.0 mb)
Winds: from the S (190 degrees) at 2 MPH (2 knots; 1.0 m/s)
Visibility: 6 or more miles (10+ km)
Ceiling: at least 12,000 feet AGL
Clouds: scattered clouds at 22000 feet AGL
Weather: no significant weather observed at this time

METAR text: ETHS 181920Z 18002KT 9999 FEW220 02/M01 Q1014 BLU+
Conditions at: ETHS (FASSBERG (GER-AF, DE) observed 1920 UTC 18 February 2019
Temperature: 2.0°C (36°F)
Dewpoint: -1.0°C (30°F) [RH = 80%]
Pressure (altimeter): 29.94 inches Hg (1014.0 mb)
Winds: from the S (180 degrees) at 2 MPH (2 knots; 1.0 m/s)
Visibility: 6 or more miles (10+ km)
Ceiling: at least 12,000 feet AGL
Clouds: few clouds at 22000 feet AGL
Weather: no significant weather observed at this time

METAR text: ETHS 181820Z 18003KT 9999 FEW300 04/00 Q1014 BLU+
Conditions at: ETHS (FASSBERG (GER-AF, DE) observed 1820 UTC 18 February 2019
Temperature: 4.0°C (39°F)
Dewpoint: 0.0°C (32°F) [RH = 75%]
Pressure (altimeter): 29.94 inches Hg (1014.0 mb)
Winds: from the S (180 degrees) at 3 MPH (3 knots; 1.5 m/s)
Visibility: 6 or more miles (10+ km)
Ceiling: at least 12,000 feet AGL
Clouds: few clouds at 30000 feet AGL
Weather: no significant weather observed at this time

METAR text: ETHS 181720Z 18002KT 9999 FEW300 07/00 Q1015 BLU+
Conditions at: ETHS (FASSBERG (GER-AF, DE) observed 1720 UTC 18 February 2019
Temperature: 7.0°C (45°F)
Dewpoint: 0.0°C (32°F) [RH = 61%]
Pressure (altimeter): 29.97 inches Hg (1015.0 mb)
Winds: from the S (180 degrees) at 2 MPH (2 knots; 1.0 m/s)
Visibility: 6 or more miles (10+ km)
Ceiling: at least 12,000 feet AGL
Clouds: few clouds at 30000 feet AGL
Weather: no significant weather observed at this time

METAR text: ETHS 181620Z 19005KT 9999 FEW300 12/00 Q1015 BLU+
Conditions at: ETHS (FASSBERG (GER-AF, DE) observed 1620 UTC 18 February 2019
Temperature: 12.0°C (54°F)
Dewpoint: 0.0°C (32°F) [RH = 44%]
Pressure (altimeter): 29.97 inches Hg (1015.0 mb)
Winds: from the S (190 degrees) at 6 MPH (5 knots; 2.6 m/s)
Visibility: 6 or more miles (10+ km)
Ceiling: at least 12,000 feet AGL
Clouds: few clouds at 30000 feet AGL
Weather: no significant weather observed at this time

METAR text: ETHS 181600Z 19006KT 9999 FEW300 13/00 Q1015 BLU+FCST CANCEL
Conditions at: ETHS (FASSBERG (GER-AF, DE) observed 1600 UTC 18 February 2019
Temperature: 13.0°C (55°F)
Dewpoint: 0.0°C (32°F) [RH = 41%]
Pressure (altimeter): 29.97 inches Hg (1015.0 mb)
Winds: from the S (190 degrees) at 7 MPH (6 knots; 3.1 m/s)
Visibility: 6 or more miles (10+ km)
Ceiling: at least 12,000 feet AGL
Clouds: few clouds at 30000 feet AGL
Weather: no significant weather observed at this time

METAR text: ETHS 181520Z 22007KT 9999 FEW300 15/M00 Q1016 BLU+BLU+
Conditions at: ETHS (FASSBERG (GER-AF, DE) observed 1520 UTC 18 February 2019
Temperature: 15.0°C (59°F)
Dewpoint: 0.0°C (32°F) [RH = 36%]
Pressure (altimeter): 30.00 inches Hg (1016.0 mb)
Winds: from the SW (220 degrees) at 8 MPH (7 knots; 3.6 m/s)
Visibility: 6 or more miles (10+ km)
Ceiling: at least 12,000 feet AGL
Clouds: few clouds at 30000 feet AGL
Weather: no significant weather observed at this time

METAR text: ETHS 181420Z 24008KT 9999 15/M01 Q1016 BLU+BLU+
Conditions at: ETHS (FASSBERG (GER-AF, DE) observed 1420 UTC 18 February 2019
Temperature: 15.0°C (59°F)
Dewpoint: -1.0°C (30°F) [RH = 33%]
Pressure (altimeter): 30.00 inches Hg (1016.0 mb)
Winds: from the WSW (240 degrees) at 9 MPH (8 knots; 4.1 m/s)
Visibility: 6 or more miles (10+ km)
Ceiling: unknown
Clouds: missing
Weather: no significant weather observed at this time

METAR text: ETHS 181320Z 24007KT 9999 16/M01 Q1017 BLU+BLU+
Conditions at: ETHS (FASSBERG (GER-AF, DE) observed 1320 UTC 18 February 2019
Temperature: 16.0°C (61°F)
Dewpoint: -1.0°C (30°F) [RH = 31%]
Pressure (altimeter): 30.03 inches Hg (1017.0 mb)
Winds: from the WSW (240 degrees) at 8 MPH (7 knots; 3.6 m/s)
Visibility: 6 or more miles (10+ km)
Ceiling: unknown
Clouds: missing
Weather: no significant weather observed at this time

METAR text: ETHS 181220Z 25007KT 9999 15/M00 Q1017 BLU+BLU+
Conditions at: ETHS (FASSBERG (GER-AF, DE) observed 1220 UTC 18 February 2019
Temperature: 15.0°C (59°F)
Dewpoint: 0.0°C (32°F) [RH = 36%]
Pressure (altimeter): 30.03 inches Hg (1017.0 mb)
Winds: from the WSW (250 degrees) at 8 MPH (7 knots; 3.6 m/s)
Visibility: 6 or more miles (10+ km)
Ceiling: unknown
Clouds: missing
Weather: no significant weather observed at this time

METAR text: ETHS 181120Z 26006KT 9999 13/M01 Q1018 BLU+BLU+
Conditions at: ETHS (FASSBERG (GER-AF, DE) observed 1120 UTC 18 February 2019
Temperature: 13.0°C (55°F)
Dewpoint: -1.0°C (30°F) [RH = 38%]
Pressure (altimeter): 30.06 inches Hg (1018.0 mb)
Winds: from the W (260 degrees) at 7 MPH (6 knots; 3.1 m/s)
Visibility: 6 or more miles (10+ km)
Ceiling: unknown
Clouds: missing
Weather: no significant weather observed at this time

METAR text: ETHS 181020Z 25005KT 9999 11/M01 Q1019 BLU+BLU+
Conditions at: ETHS (FASSBERG (GER-AF, DE) observed 1020 UTC 18 February 2019
Temperature: 11.0°C (52°F)
Dewpoint: -1.0°C (30°F) [RH = 43%]
Pressure (altimeter): 30.09 inches Hg (1019.0 mb)
Winds: from the WSW (250 degrees) at 6 MPH (5 knots; 2.6 m/s)
Visibility: 6 or more miles (10+ km)
Ceiling: unknown
Clouds: missing
Weather: no significant weather observed at this time

METAR text: ETHS 180920Z 23004KT 9999 08/M01 Q1019 BLU+BLU+
Conditions at: ETHS (FASSBERG (GER-AF, DE) observed 0920 UTC 18 February 2019
Temperature: 8.0°C (46°F)
Dewpoint: -1.0°C (30°F) [RH = 53%]
Pressure (altimeter): 30.09 inches Hg (1019.0 mb)
Winds: from the SW (230 degrees) at 5 MPH (4 knots; 2.1 m/s)
Visibility: 6 or more miles (10+ km)
Ceiling: unknown
Clouds: missing
Weather: no significant weather observed at this time

METAR text: ETHS 180820Z 00000KT 9999 02/M00 Q1019 BLU+BLU+
Conditions at: ETHS (FASSBERG (GER-AF, DE) observed 0820 UTC 18 February 2019
Temperature: 2.0°C (36°F)
Dewpoint: 0.0°C (32°F) [RH = 87%]
Pressure (altimeter): 30.09 inches Hg (1019.0 mb)
Winds: calm
Visibility: 6 or more miles (10+ km)
Ceiling: unknown
Clouds: missing
Weather: no significant weather observed at this time

METAR text: ETHS 180720Z 05001KT 9999 FEW300 M03/M03 Q1020 BLU+BLU+
Conditions at: ETHS (FASSBERG (GER-AF, DE) observed 0720 UTC 18 February 2019
Temperature: -3.0°C (27°F)
Dewpoint: -3.0°C (27°F) [RH = 100%]
Pressure (altimeter): 30.12 inches Hg (1020.0 mb)
Winds: from the NE (50 degrees) at 1 MPH (1 knots; 0.5 m/s)
Visibility: 6 or more miles (10+ km)
Ceiling: at least 12,000 feet AGL
Clouds: few clouds at 30000 feet AGL
Weather: no significant weather observed at this time

METAR text: ETHS 180620Z 05001KT 9999 MIFG FEW300 M03/M03 Q1019 BLU+BLU+
Conditions at: ETHS (FASSBERG (GER-AF, DE) observed 0620 UTC 18 February 2019
Temperature: -3.0°C (27°F)
Dewpoint: -3.0°C (27°F) [RH = 100%]
Pressure (altimeter): 30.09 inches Hg (1019.0 mb)
Winds: from the NE (50 degrees) at 1 MPH (1 knots; 0.5 m/s)
Visibility: 6 or more miles (10+ km)
Ceiling: at least 12,000 feet AGL
Clouds: few clouds at 30000 feet AGL
Weather: MIFG  (shallow fog)

METAR text: ETHS 180520Z 16001KT 9999 MIFG FEW300 M04/M05 Q1019 BLU+BLU+
Conditions at: ETHS (FASSBERG (GER-AF, DE) observed 0520 UTC 18 February 2019
Temperature: -4.0°C (25°F)
Dewpoint: -5.0°C (23°F) [RH = 93%]
Pressure (altimeter): 30.09 inches Hg (1019.0 mb)
Winds: from the SSE (160 degrees) at 1 MPH (1 knots; 0.5 m/s)
Visibility: 6 or more miles (10+ km)
Ceiling: at least 12,000 feet AGL
Clouds: few clouds at 30000 feet AGL
Weather: MIFG  (shallow fog)

METAR text: ETHS 180420Z 00000KT 9999 MIFG FEW300 M03/M04 Q1019 BLU+
Conditions at: ETHS (FASSBERG (GER-AF, DE) observed 0420 UTC 18 February 2019
Temperature: -3.0°C (27°F)
Dewpoint: -4.0°C (25°F) [RH = 93%]
Pressure (altimeter): 30.09 inches Hg (1019.0 mb)
Winds: calm
Visibility: 6 or more miles (10+ km)
Ceiling: at least 12,000 feet AGL
Clouds: few clouds at 30000 feet AGL
Weather: MIFG  (shallow fog)

METAR text: ETHS 180320Z 00000KT 9999 SCT300 M03/M03 Q1019 BLU+
Conditions at: ETHS (FASSBERG (GER-AF, DE) observed 0320 UTC 18 February 2019
Temperature: -3.0°C (27°F)
Dewpoint: -3.0°C (27°F) [RH = 100%]
Pressure (altimeter): 30.09 inches Hg (1019.0 mb)
Winds: calm
Visibility: 6 or more miles (10+ km)
Ceiling: at least 12,000 feet AGL
Clouds: scattered clouds at 30000 feet AGL
Weather: no significant weather observed at this time

METAR text: ETHS 180220Z 00000KT 9999 SCT300 M02/M03 Q1019 BLU+
Conditions at: ETHS (FASSBERG (GER-AF, DE) observed 0220 UTC 18 February 2019
Temperature: -2.0°C (28°F)
Dewpoint: -3.0°C (27°F) [RH = 93%]
Pressure (altimeter): 30.09 inches Hg (1019.0 mb)
Winds: calm
Visibility: 6 or more miles (10+ km)
Ceiling: at least 12,000 feet AGL
Clouds: scattered clouds at 30000 feet AGL
Weather: no significant weather observed at this time

METAR text: ETHS 180120Z 00000KT 9999 SCT300 M02/M02 Q1020 BLU+
Conditions at: ETHS (FASSBERG (GER-AF, DE) observed 0120 UTC 18 February 2019
Temperature: -2.0°C (28°F)
Dewpoint: -2.0°C (28°F) [RH = 100%]
Pressure (altimeter): 30.12 inches Hg (1020.0 mb)
Winds: calm
Visibility: 6 or more miles (10+ km)
Ceiling: at least 12,000 feet AGL
Clouds: scattered clouds at 30000 feet AGL
Weather: no significant weather observed at this time

METAR text: ETHS 180020Z 00000KT 9999 BKN280 M01/M02 Q1020 BLU+
Conditions at: ETHS (FASSBERG (GER-AF, DE) observed 0020 UTC 18 February 2019
Temperature: -1.0°C (30°F)
Dewpoint: -2.0°C (28°F) [RH = 93%]
Pressure (altimeter): 30.12 inches Hg (1020.0 mb)
Winds: calm
Visibility: 6 or more miles (10+ km)
Ceiling: 28000 feet AGL
Clouds: broken clouds at 28000 feet AGL
Weather: no significant weather observed at this time

Forecast for: ETHS (FASSBERG (GER-AF, DE)
Text: TAF ETHS 191119Z 1912/1921 26012KT 9999 NSW SCT015 BKN040
Forecast period: 1200 to 2100 UTC 19 February 2019
Forecast type: FROM: standard forecast or significant change
Winds: from the W (260 degrees) at 14 MPH (12 knots; 6.2 m/s)
Visibility: 6 or more miles 10+ km)
Ceiling: 4000 feet AGL
Clouds: scattered clouds at 1500 feet AGL
broken clouds at 4000 feet AGL
Weather: NSW  (no significant weather)
Text: TEMPO 1912/1921 27015G28KT 6000 -SHRA BKN010 BKN020TCU
Forecast period: 1200 to 2100 UTC 19 February 2019
Forecast type: TEMPORARY: The following changes expected for less than half the time period
Winds: from the W (270 degrees) at 17 MPH (15 knots; 7.7 m/s)
gusting to 32 MPH (28 knots; 14.4 m/s)
Visibility: 4 miles (6 km)
Ceiling: 1000 feet AGL
Clouds: broken clouds at 1000 feet AGL
broken clouds at 2000 feet AGL
Weather: -SHRA  (light rain showers)